This is the latest recevied weather packets stored in our database for station/object HA8BKG-10. If no packets are shown the sender has not sent any weather packets the latest 10 day(s).
| Time | Temp. | Humidity | Pressure | Rain* | Wind** | Luminosity | Snow |
|---|---|---|---|---|---|---|---|
| 1778167964 | 21.67° C | 53% | 1014 hPa | - | - | - | - |
| 1778167931 | 21.67° C | 53% | 1014 hPa | - | - | - | - |
| 1778167073 | 21.67° C | 53% | 1014 hPa | - | - | - | - |
| 1778167031 | 21.67° C | 53% | 1014 hPa | - | - | - | - |
| 1778166183 | 21.11° C | 54% | 1014.1 hPa | - | - | - | - |
| 1778166130 | 21.11° C | 54% | 1014.1 hPa | - | - | - | - |
| 1778165296 | 21.67° C | 54% | 1014.1 hPa | - | - | - | - |
| 1778165262 | 21.67° C | 54% | 1014.1 hPa | - | - | - | - |
| 1778165230 | 21.67° C | 54% | 1014.1 hPa | - | - | - | - |
| 1778164329 | 21.11° C | 54% | 1014.2 hPa | - | - | - | - |
| 1778163428 | 21.11° C | 54% | 1014.4 hPa | - | - | - | - |
| 1778162563 | 21.67° C | 51% | 1014.6 hPa | - | - | - | - |
| 1778162527 | 21.67° C | 51% | 1014.6 hPa | - | - | - | - |
| 1778161627 | 21.67° C | 51% | 1014.7 hPa | - | - | - | - |
| 1778160726 | 21.67° C | 50% | 1014.8 hPa | - | - | - | - |
| 1778159858 | 22.22° C | 48% | 1014.8 hPa | - | - | - | - |
| 1778159826 | 22.22° C | 48% | 1014.8 hPa | - | - | - | - |
| 1778158925 | 21.67° C | 51% | 1014.9 hPa | - | - | - | - |
| 1778158058 | 21.67° C | 50% | 1014.8 hPa | - | - | - | - |
| 1778158025 | 21.67° C | 50% | 1014.8 hPa | - | - | - | - |
| 1778157124 | 21.67° C | 50% | 1014.9 hPa | - | - | - | - |
| 1778156223 | 21.67° C | 49% | 1014.7 hPa | - | - | - | - |
| 1778155322 | 22.78° C | 45% | 1014.3 hPa | - | - | - | - |
| 1778154422 | 22.78° C | 45% | 1014.2 hPa | - | - | - | - |
| 1778153520 | 22.78° C | 44% | 1014.1 hPa | - | - | - | - |
* Rain since midnight (hover to see other rain measurements)
** Current wind speed in m/s (hover to see current wind gust speed)